Aviation Digital Data Service (ADDS)

Output produced by METARs form (1218 UTC 24 May 2022)
found at http://www.aviationweather.gov/metar/data/
 
METAR text: LFLU 241200Z AUTO 03013KT 360V080 CAVOK 21/09 Q1010
Conditions at: LFLU (VALENCE-CHABEUIL, FR) observed 1200 UTC 24 May 2022
Temperature: 21.0°C (70°F)
Dewpoint: 9.0°C (48°F) [RH = 46%]
Pressure (altimeter): 29.82 inches Hg (1010.0 mb)
Winds: from the NNE (30 degrees) at 15 MPH (13 knots; 6.7 m/s)
Visibility: 6 or more miles (10+ km)
Ceiling: ceiling and visibility are OK
Clouds: unknown
Weather: no significant weather observed at this time